createdAt,value
2023-02-24T00:04:32.313Z,98.28
2023-02-24T00:09:31.590Z,97.75
2023-02-24T00:14:32.675Z,98.33
2023-02-24T00:19:32.891Z,97.65
2023-02-24T00:24:33.071Z,99.10
2023-02-24T00:29:35.192Z,98.83
2023-02-24T00:34:34.318Z,99.46
2023-02-24T00:39:35.481Z,99.51
2023-02-24T00:44:36.583Z,99.92
2023-02-24T00:49:38.705Z,99.99
2023-02-24T00:54:37.864Z,99.96
2023-02-24T00:59:40.025Z,99.99
2023-02-24T01:04:39.173Z,99.99
2023-02-24T01:09:41.341Z,99.99
2023-02-24T01:14:40.483Z,99.99
2023-02-24T01:19:41.595Z,99.46
2023-02-24T01:24:42.716Z,99.46
2023-02-24T01:29:45.062Z,99.99
2023-02-24T01:34:46.239Z,99.46
2023-02-24T01:39:47.361Z,99.61
2023-02-24T01:44:46.482Z,99.13
2023-02-24T01:49:48.640Z,98.72
2023-02-24T01:54:47.738Z,98.97
2023-02-24T01:59:48.849Z,99.99
2023-02-24T02:04:49.980Z,99.99
2023-02-24T02:09:51.136Z,99.99
2023-02-24T02:14:53.361Z,99.99
2023-02-24T02:19:52.472Z,99.99
2023-02-24T02:24:53.613Z,99.99
2023-02-24T02:29:54.775Z,99.99
2023-02-24T02:34:55.888Z,99.99
2023-02-24T02:39:57.004Z,99.99
2023-02-24T02:44:58.125Z,99.99
2023-02-24T02:49:59.269Z,99.99
2023-02-24T02:55:00.462Z,99.99
2023-02-24T03:00:02.576Z,99.99
2023-02-24T03:05:02.770Z,99.99
2023-02-24T03:10:02.969Z,99.99
2023-02-24T03:15:02.155Z,99.99
2023-02-24T03:20:03.341Z,99.99
2023-02-24T03:25:04.461Z,99.99
2023-02-24T03:30:05.592Z,99.99
2023-02-24T03:35:07.744Z,99.99
2023-02-24T03:40:06.929Z,99.99
2023-02-24T03:45:08.069Z,99.99
2023-02-24T03:50:09.172Z,99.99
2023-02-24T03:55:10.306Z,99.99
2023-02-24T04:00:11.492Z,99.99
2023-02-24T04:05:13.614Z,99.99
2023-02-24T04:10:13.748Z,99.99
2023-02-24T04:15:12.885Z,99.99
2023-02-24T04:20:15.197Z,99.99
2023-02-24T04:25:14.295Z,99.99
2023-02-24T04:30:15.436Z,99.99
2023-02-24T04:35:16.590Z,99.99
2023-02-24T04:40:18.746Z,99.99
2023-02-24T04:45:17.858Z,99.99
2023-02-24T04:50:20.140Z,99.99
2023-02-24T04:55:20.245Z,99.99
2023-02-24T05:00:19.405Z,99.99
2023-02-24T05:05:20.578Z,99.99
2023-02-24T05:10:21.723Z,99.99
2023-02-24T05:15:22.865Z,99.99
2023-02-24T05:20:25.017Z,99.99
2023-02-24T05:25:25.318Z,99.99
2023-02-24T05:30:25.524Z,99.99
2023-02-24T05:35:25.676Z,99.99
2023-02-24T05:40:24.793Z,99.99
2023-02-24T05:45:25.992Z,99.99
2023-02-24T05:50:27.103Z,99.99
2023-02-24T05:55:28.229Z,99.99
2023-02-24T06:00:30.391Z,99.99
2023-02-24T06:05:29.511Z,99.99
2023-02-24T06:10:30.616Z,99.99
2023-02-24T06:15:31.756Z,99.99
2023-02-24T06:20:34.864Z,99.99
2023-02-24T06:25:34.017Z,99.99
2023-02-24T06:30:35.294Z,99.99
2023-02-24T06:35:37.477Z,99.99
2023-02-24T06:40:36.605Z,99.99
2023-02-24T06:45:37.813Z,99.99
2023-02-24T06:50:40.589Z,99.99
2023-02-24T06:55:39.081Z,99.99
2023-02-24T07:00:41.235Z,99.99
2023-02-24T07:05:41.423Z,99.99
2023-02-24T07:10:40.540Z,99.99
2023-02-24T07:15:42.678Z,99.99
2023-02-24T07:20:41.784Z,99.99
2023-02-24T07:25:42.943Z,99.99
2023-02-24T07:30:44.149Z,99.99
2023-02-24T07:35:45.362Z,99.66
2023-02-24T07:40:46.527Z,99.66
2023-02-24T07:45:47.691Z,98.01
2023-02-24T07:50:48.904Z,97.25
2023-02-24T07:55:50.011Z,97.30
2023-02-24T08:01:36.221Z,97.72
2023-02-24T08:05:52.448Z,97.36
2023-02-24T08:10:51.581Z,95.21
2023-02-24T08:15:53.782Z,93.99
2023-02-24T08:20:53.044Z,94.08
2023-02-24T08:25:55.170Z,94.13
2023-02-24T08:30:56.441Z,93.48
2023-02-24T08:35:56.582Z,92.86
2023-02-24T08:40:56.788Z,94.38
2023-02-24T08:45:56.927Z,94.08
2023-02-24T08:50:57.060Z,93.30
2023-02-24T08:55:57.219Z,92.38
2023-02-24T09:00:57.423Z,91.83
2023-02-24T09:05:57.576Z,91.68
2023-02-24T09:10:57.748Z,90.78
2023-02-24T09:15:57.888Z,91.19
2023-02-24T09:20:57.025Z,89.04
2023-02-24T09:25:58.431Z,88.96
2023-02-24T09:30:59.623Z,86.38
2023-02-24T09:36:00.731Z,81.70
2023-02-24T09:41:13.754Z,83.20
2023-02-24T09:46:02.888Z,81.29
2023-02-24T09:51:04.764Z,81.18
2023-02-24T09:56:02.383Z,84.53
2023-02-24T10:01:03.546Z,85.36
2023-02-24T10:06:05.772Z,84.91
2023-02-24T10:11:05.898Z,83.47
2023-02-24T10:16:06.497Z,83.58
2023-02-24T10:21:07.283Z,82.51
2023-02-24T10:26:07.154Z,81.08
2023-02-24T10:31:07.619Z,81.59
2023-02-24T10:36:06.765Z,80.60
2023-02-24T10:41:07.915Z,77.35
2023-02-24T10:46:09.057Z,74.49
2023-02-24T10:51:11.168Z,76.32
2023-02-24T10:56:11.318Z,72.21
2023-02-24T11:01:11.481Z,72.17
2023-02-24T11:06:10.609Z,72.24
2023-02-24T11:11:11.715Z,69.32
2023-02-24T11:16:12.927Z,68.48
2023-02-24T11:21:14.045Z,68.75
2023-02-24T11:26:15.158Z,67.53
2023-02-24T11:31:16.441Z,69.26
2023-02-24T11:36:18.582Z,72.31
2023-02-24T11:41:18.816Z,73.30
2023-02-24T11:46:19.089Z,74.49
2023-02-24T11:51:18.310Z,77.07
2023-02-24T11:56:19.522Z,79.28
2023-02-24T12:01:21.761Z,80.38
2023-02-24T12:06:22.154Z,79.70
2023-02-24T12:11:21.961Z,78.85
2023-02-24T12:16:21.383Z,78.86
2023-02-24T12:21:22.895Z,80.29
2023-02-24T12:26:22.304Z,79.80
2023-02-24T12:31:25.117Z,76.56
2023-02-24T12:36:24.439Z,77.80
2023-02-24T12:41:26.576Z,78.34
2023-02-24T12:46:25.702Z,77.12
2023-02-24T12:51:26.833Z,78.24
2023-02-24T12:56:27.922Z,77.08
2023-02-24T13:01:29.129Z,77.01
2023-02-24T13:06:30.294Z,75.62
2023-02-24T13:11:31.492Z,78.07
2023-02-24T13:16:32.761Z,77.39
2023-02-24T13:21:33.968Z,78.92
2023-02-24T13:26:36.106Z,79.37
2023-02-24T13:31:35.299Z,79.37
2023-02-24T13:36:38.504Z,79.16
2023-02-24T13:41:38.682Z,78.75
2023-02-24T13:46:37.852Z,77.66
2023-02-24T13:51:39.097Z,77.94
2023-02-24T13:56:40.211Z,78.24
2023-02-24T14:01:41.406Z,78.34
2023-02-24T14:06:43.713Z,78.75
2023-02-24T14:11:42.870Z,79.19
2023-02-24T14:16:44.332Z,79.19
2023-02-24T14:21:47.483Z,80.01
2023-02-24T14:26:46.647Z,79.43
2023-02-24T14:31:47.971Z,79.08
2023-02-24T14:36:49.269Z,78.33
2023-02-24T14:41:50.590Z,78.33
2023-02-24T14:46:52.815Z,79.04
2023-02-24T14:51:51.914Z,79.25
2023-02-24T14:56:54.060Z,79.41
2023-02-24T15:01:53.323Z,77.27
2023-02-24T15:06:54.530Z,77.51
2023-02-24T15:11:55.649Z,77.92
2023-02-24T15:16:56.822Z,79.08
2023-02-24T15:21:58.041Z,78.43
2023-02-24T15:26:59.249Z,77.82
2023-02-24T15:32:01.503Z,78.43
2023-02-24T15:37:00.737Z,79.14
2023-02-24T15:42:01.909Z,78.53
2023-02-24T15:47:06.962Z,78.67
2023-02-24T15:52:03.137Z,78.33
2023-02-24T15:57:04.379Z,78.43
2023-02-24T16:02:07.508Z,78.88
2023-02-24T16:07:07.633Z,79.59
2023-02-24T16:12:07.880Z,79.49
2023-02-24T16:17:08.005Z,79.32
2023-02-24T16:22:08.151Z,79.22
2023-02-24T16:27:07.549Z,78.41
2023-02-24T16:32:07.128Z,78.20
2023-02-24T16:37:06.447Z,78.91
2023-02-24T16:42:07.808Z,79.32
2023-02-24T16:47:10.269Z,79.83
2023-02-24T16:52:09.729Z,80.28
2023-02-24T16:57:10.141Z,80.18
2023-02-24T17:02:09.558Z,78.95
2023-02-24T17:07:10.934Z,80.89
2023-02-24T17:12:12.476Z,81.51
2023-02-24T17:17:11.944Z,81.81
2023-02-24T17:22:11.451Z,83.69
2023-02-24T17:27:14.887Z,86.04
2023-02-24T17:32:12.528Z,86.96
2023-02-24T17:37:11.904Z,87.30
2023-02-24T17:42:13.101Z,88.08
2023-02-24T17:47:15.465Z,87.82
2023-02-24T17:52:14.700Z,87.82
2023-02-24T17:57:16.136Z,88.06
2023-02-24T18:02:15.526Z,88.68
2023-02-24T18:07:16.782Z,88.20
2023-02-24T18:12:18.954Z,91.01
2023-02-24T18:17:17.129Z,92.90
2023-02-24T18:22:18.344Z,93.19
2023-02-24T18:27:19.601Z,94.92
2023-02-24T18:32:21.240Z,94.10
2023-02-24T18:37:21.816Z,96.10
2023-02-24T18:42:21.285Z,97.38
2023-02-24T18:47:22.736Z,98.30
2023-02-24T18:52:21.999Z,98.30
2023-02-24T18:57:23.390Z,97.99
2023-02-24T19:02:25.805Z,98.30
2023-02-24T19:07:25.269Z,98.30
2023-02-24T19:12:26.747Z,97.07
2023-02-24T19:17:26.964Z,95.90
2023-02-24T19:22:26.341Z,96.62
2023-02-24T19:27:26.737Z,95.18
2023-02-24T19:32:28.236Z,94.36
2023-02-24T19:37:25.779Z,94.56
2023-02-24T19:42:26.939Z,94.05
2023-02-24T19:47:26.084Z,96.82
2023-02-24T19:52:27.444Z,98.20
2023-02-24T19:57:28.699Z,98.92
2023-02-24T20:02:31.080Z,99.68
2023-02-24T20:07:30.507Z,99.73
2023-02-24T20:12:32.026Z,99.99
2023-02-24T20:17:42.679Z,99.99
2023-02-24T20:22:32.019Z,99.99
2023-02-24T20:27:33.338Z,99.38
2023-02-24T20:32:48.030Z,98.61
2023-02-24T20:37:35.783Z,97.48
2023-02-24T20:42:35.213Z,97.79
2023-02-24T20:47:38.658Z,95.94
2023-02-24T20:52:37.867Z,95.69
2023-02-24T20:57:39.970Z,94.87
2023-02-24T21:02:40.376Z,95.12
2023-02-24T21:07:39.898Z,96.87
2023-02-24T21:12:39.181Z,95.94
2023-02-24T21:17:40.510Z,97.28
2023-02-24T21:23:02.659Z,98.25
2023-02-24T21:27:41.835Z,99.58
2023-02-24T21:32:43.125Z,99.27
2023-02-24T21:37:44.246Z,97.73
2023-02-24T21:42:45.351Z,96.50
2023-02-24T21:47:47.509Z,94.76
2023-02-24T21:52:48.601Z,94.14
2023-02-24T21:57:47.753Z,93.59
2023-02-24T22:02:48.952Z,93.12
2023-02-24T22:07:51.095Z,91.57
2023-02-24T22:12:50.233Z,91.06
2023-02-24T22:17:51.360Z,90.65
2023-02-24T22:22:53.454Z,92.08
2023-02-24T22:27:52.559Z,91.06
2023-02-24T22:32:53.705Z,90.65
2023-02-24T22:37:55.880Z,91.16
2023-02-24T22:42:54.987Z,91.22
2023-02-24T22:47:56.115Z,91.12
2023-02-24T22:52:58.281Z,93.26
2023-02-24T22:57:59.417Z,95.05
2023-02-24T23:02:58.580Z,95.56
2023-02-24T23:07:59.724Z,97.10
2023-02-24T23:12:59.874Z,96.65
2023-02-24T23:18:01.016Z,97.20
2023-02-24T23:23:02.302Z,98.03
2023-02-24T23:28:02.500Z,98.13
2023-02-24T23:33:03.684Z,98.13
2023-02-24T23:38:04.830Z,96.65
2023-02-24T23:43:06.009Z,96.90
2023-02-24T23:48:09.107Z,97.97
2023-02-24T23:53:09.195Z,99.51
2023-02-24T23:58:08.421Z,97.45
